createdAt,value
2023-02-02T00:01:35.999Z,100.00
2023-02-02T00:06:45.453Z,100.00
2023-02-02T00:11:48.920Z,100.00
2023-02-02T00:16:55.783Z,100.00
2023-02-02T00:21:58.951Z,100.00
2023-02-02T00:27:01.274Z,100.00
2023-02-02T00:32:03.729Z,100.00
2023-02-02T00:37:06.191Z,94.59
2023-02-02T00:42:16.690Z,90.10
2023-02-02T00:47:22.699Z,90.29
2023-02-02T00:52:24.928Z,91.70
2023-02-02T00:57:26.947Z,95.39
2023-02-02T01:02:29.197Z,96.84
2023-02-02T01:07:31.563Z,96.18
2023-02-02T01:12:33.829Z,95.09
2023-02-02T01:17:35.953Z,94.81
2023-02-02T01:22:38.950Z,94.95
2023-02-02T01:27:42.938Z,94.37
2023-02-02T01:32:45.536Z,94.53
2023-02-02T01:37:47.920Z,94.82
2023-02-02T01:42:50.089Z,93.74
2023-02-02T01:47:56.665Z,93.34
2023-02-02T01:53:02.291Z,92.53
2023-02-02T01:58:11.650Z,92.43
2023-02-02T02:03:17.228Z,92.71
2023-02-02T02:08:27.323Z,92.75
2023-02-02T02:13:50.118Z,94.06
2023-02-02T02:19:31.311Z,93.68
2023-02-02T02:25:46.939Z,94.03
2023-02-02T02:30:55.523Z,93.39
2023-02-02T02:36:11.156Z,92.97
2023-02-02T02:41:23.374Z,91.65
2023-02-02T02:46:26.893Z,90.41
2023-02-02T02:51:47.396Z,88.55
2023-02-02T02:57:11.064Z,88.25
2023-02-02T03:02:29.307Z,87.28
2023-02-02T03:07:42.561Z,85.74
2023-02-02T03:12:50.125Z,86.16
2023-02-02T03:17:54.289Z,86.89
2023-02-02T03:22:56.806Z,87.36
2023-02-02T03:27:59.486Z,86.05
2023-02-02T03:33:01.790Z,84.84
2023-02-02T03:38:04.381Z,84.02
2023-02-02T03:43:06.683Z,83.87
2023-02-02T03:48:09.017Z,83.71
2023-02-02T03:53:11.273Z,83.10
2023-02-02T03:58:13.483Z,84.12
2023-02-02T04:03:15.555Z,85.76
2023-02-02T04:08:17.751Z,86.84
2023-02-02T04:13:20.174Z,89.24
2023-02-02T04:18:22.489Z,90.96
2023-02-02T04:23:25.039Z,92.73
2023-02-02T04:28:28.321Z,92.98
2023-02-02T04:33:30.603Z,95.60
2023-02-02T04:38:32.815Z,94.27
2023-02-02T04:43:36.718Z,90.87
2023-02-02T04:48:41.298Z,84.49
2023-02-02T04:53:43.670Z,84.79
2023-02-02T04:58:46.377Z,81.18
2023-02-02T05:03:49.715Z,80.26
2023-02-02T05:08:52.196Z,80.60
2023-02-02T05:13:55.387Z,81.18
2023-02-02T05:18:59.652Z,80.11
2023-02-02T05:24:03.116Z,81.38
2023-02-02T05:29:07.039Z,78.36
2023-02-02T05:34:11.736Z,77.21
2023-02-02T05:39:14.000Z,74.44
2023-02-02T05:44:16.499Z,72.42
2023-02-02T05:49:18.511Z,71.19
2023-02-02T05:54:20.798Z,70.67
2023-02-02T05:59:23.527Z,69.06
2023-02-02T06:04:26.106Z,67.95
2023-02-02T06:09:28.188Z,67.42
2023-02-02T06:14:30.390Z,67.47
2023-02-02T06:19:32.969Z,63.01
2023-02-02T06:24:35.360Z,59.99
2023-02-02T06:29:44.941Z,60.92
2023-02-02T06:34:47.096Z,60.17
2023-02-02T06:39:49.373Z,60.03
2023-02-02T06:44:51.496Z,58.09
2023-02-02T06:49:53.768Z,56.86
2023-02-02T06:54:56.043Z,55.72
2023-02-02T06:59:58.292Z,55.13
2023-02-02T07:05:00.477Z,56.07
2023-02-02T07:10:02.657Z,53.79
2023-02-02T07:15:05.433Z,53.26
2023-02-02T07:20:08.048Z,52.21
2023-02-02T07:25:10.460Z,50.69
2023-02-02T07:30:12.877Z,45.08
2023-02-02T07:35:16.111Z,40.60
2023-02-02T07:40:18.652Z,35.56
2023-02-02T07:45:26.868Z,39.00
2023-02-02T07:50:38.401Z,39.69
2023-02-02T07:55:40.696Z,41.88
2023-02-02T08:00:42.956Z,46.11
2023-02-02T08:05:45.336Z,42.81
2023-02-02T08:10:51.787Z,42.27
2023-02-02T08:15:54.104Z,40.56
2023-02-02T08:20:59.638Z,44.44
2023-02-02T08:26:09.775Z,43.45
2023-02-02T08:31:15.513Z,40.37
2023-02-02T08:36:19.872Z,37.13
2023-02-02T08:41:24.241Z,36.30
2023-02-02T08:46:26.833Z,35.15
2023-02-02T08:51:28.996Z,32.93
2023-02-02T08:56:31.153Z,32.43
2023-02-02T09:01:34.741Z,32.00
2023-02-02T09:06:42.614Z,31.56
2023-02-02T09:11:45.373Z,31.01
2023-02-02T09:16:47.549Z,30.70
2023-02-02T09:21:50.676Z,29.33
2023-02-02T09:26:53.204Z,29.08
2023-02-02T09:31:55.590Z,31.04
2023-02-02T09:36:57.852Z,32.11
2023-02-02T09:42:05.306Z,32.62
2023-02-02T09:47:24.250Z,32.74
2023-02-02T09:52:35.626Z,31.37
2023-02-02T09:57:48.257Z,33.76
2023-02-02T10:02:54.014Z,33.71
2023-02-02T10:08:02.904Z,33.28
2023-02-02T10:13:14.200Z,30.33
2023-02-02T10:18:39.813Z,29.13
2023-02-02T10:23:46.012Z,29.57
2023-02-02T10:29:40.044Z,30.43
2023-02-02T10:35:17.737Z,31.16
2023-02-02T10:40:44.401Z,31.65
2023-02-02T10:45:50.513Z,31.53
2023-02-02T10:50:56.925Z,32.99
2023-02-02T10:56:11.948Z,34.05
2023-02-02T11:01:18.394Z,33.55
2023-02-02T11:06:39.392Z,34.17
2023-02-02T11:11:47.283Z,34.60
2023-02-02T11:17:06.010Z,35.01
2023-02-02T11:22:29.419Z,35.16
2023-02-02T11:27:35.779Z,34.57
2023-02-02T11:32:38.315Z,35.37
2023-02-02T11:37:58.759Z,34.44
2023-02-02T11:43:05.411Z,34.30
2023-02-02T11:48:18.381Z,34.59
2023-02-02T11:53:48.001Z,35.50
2023-02-02T11:58:53.431Z,35.63
2023-02-02T12:04:01.888Z,35.41
2023-02-02T12:09:13.144Z,35.34
2023-02-02T12:14:40.040Z,35.92
2023-02-02T12:20:13.237Z,35.02
2023-02-02T12:25:15.581Z,34.65
2023-02-02T12:30:34.529Z,35.03
2023-02-02T12:36:08.702Z,35.35
2023-02-02T12:41:43.276Z,34.63
2023-02-02T12:47:05.297Z,35.39
2023-02-02T12:52:28.781Z,37.15
2023-02-02T12:57:37.019Z,55.28
2023-02-02T13:02:49.820Z,72.30
2023-02-02T13:07:58.464Z,82.71
2023-02-02T13:13:08.704Z,89.59
2023-02-02T13:18:45.781Z,92.09
2023-02-02T13:23:51.517Z,90.60
2023-02-02T13:29:09.962Z,87.70
2023-02-02T13:34:18.643Z,82.89
2023-02-02T13:39:44.081Z,79.90
2023-02-02T13:44:59.304Z,82.91
2023-02-02T13:50:11.582Z,86.60
2023-02-02T13:55:38.490Z,90.18
2023-02-02T14:00:47.939Z,94.52
2023-02-02T14:06:15.065Z,99.99
2023-02-02T14:11:24.284Z,100.00
2023-02-02T14:16:35.751Z,100.00
2023-02-02T14:21:38.013Z,100.00
2023-02-02T14:26:52.190Z,100.00
2023-02-02T14:31:56.349Z,100.00
2023-02-02T14:37:09.448Z,100.00
2023-02-02T14:42:36.073Z,100.00
2023-02-02T14:47:45.827Z,100.00
2023-02-02T14:53:02.520Z,100.00
2023-02-02T14:58:07.073Z,100.00
2023-02-02T15:03:47.152Z,100.00
2023-02-02T15:09:26.871Z,100.00
2023-02-02T15:14:51.737Z,100.00
2023-02-02T15:20:10.197Z,100.00
2023-02-02T15:25:36.303Z,100.00
2023-02-02T15:30:45.025Z,100.00
2023-02-02T15:35:48.561Z,100.00
2023-02-02T15:40:51.214Z,100.00
2023-02-02T15:46:02.008Z,100.00
2023-02-02T15:51:07.825Z,100.00
2023-02-02T15:56:25.364Z,100.00
2023-02-02T16:01:33.452Z,100.00
2023-02-02T16:06:36.376Z,100.00
2023-02-02T16:11:43.580Z,100.00
2023-02-02T16:16:49.540Z,100.00
2023-02-02T16:21:59.546Z,100.00
2023-02-02T16:27:12.751Z,100.00
2023-02-02T16:32:32.826Z,100.00
2023-02-02T16:37:36.770Z,100.00
2023-02-02T16:42:38.811Z,100.00
2023-02-02T16:47:40.968Z,100.00
2023-02-02T16:53:04.623Z,100.00
2023-02-02T16:58:07.537Z,100.00
2023-02-02T17:03:13.074Z,100.00
2023-02-02T17:08:25.491Z,100.00
2023-02-02T17:13:30.567Z,100.00
2023-02-02T17:18:32.762Z,100.00
2023-02-02T17:23:37.372Z,100.00
2023-02-02T17:28:41.913Z,100.00
2023-02-02T17:33:44.423Z,100.00
2023-02-02T17:38:46.678Z,100.00
2023-02-02T17:43:49.148Z,100.00
2023-02-02T17:48:51.396Z,100.00
2023-02-02T17:53:57.848Z,100.00
2023-02-02T17:59:00.221Z,100.00
2023-02-02T18:04:02.425Z,100.00
2023-02-02T18:09:04.577Z,100.00
2023-02-02T18:14:06.889Z,100.00
2023-02-02T18:19:09.133Z,100.00
2023-02-02T18:24:15.452Z,100.00
2023-02-02T18:29:17.632Z,100.00
2023-02-02T18:34:19.921Z,100.00
2023-02-02T18:39:22.394Z,100.00
2023-02-02T18:44:24.820Z,100.00
2023-02-02T18:49:27.101Z,100.00
2023-02-02T18:54:29.996Z,100.00
2023-02-02T18:59:32.558Z,100.00
2023-02-02T19:04:35.019Z,100.00
2023-02-02T19:09:37.385Z,100.00
2023-02-02T19:14:40.097Z,100.00
2023-02-02T19:19:43.243Z,100.00
2023-02-02T19:24:45.412Z,100.00
2023-02-02T19:29:51.038Z,100.00
2023-02-02T19:34:55.636Z,98.00
2023-02-02T19:40:16.251Z,98.30
2023-02-02T19:45:23.168Z,97.38
2023-02-02T19:50:28.659Z,98.32
2023-02-02T19:55:36.703Z,98.60
2023-02-02T20:00:41.264Z,99.59
2023-02-02T20:05:46.927Z,100.00
2023-02-02T20:10:50.320Z,95.95
2023-02-02T20:16:03.740Z,95.28
2023-02-02T20:27:34.642Z,94.03
2023-02-02T20:32:41.500Z,92.60
2023-02-02T20:37:44.154Z,93.48
2023-02-02T20:42:46.951Z,92.55
2023-02-02T20:47:50.036Z,92.60
2023-02-02T20:52:53.824Z,91.43
2023-02-02T20:57:56.078Z,91.02
2023-02-02T21:02:58.647Z,90.88
2023-02-02T21:08:01.020Z,90.63
2023-02-02T21:13:03.228Z,91.48
2023-02-02T21:18:05.638Z,90.46
2023-02-02T21:23:10.468Z,89.19
2023-02-02T21:28:12.684Z,91.00
2023-02-02T21:33:15.013Z,88.30
2023-02-02T21:38:17.245Z,89.14
2023-02-02T21:43:20.040Z,88.36
2023-02-02T21:48:34.996Z,89.09
2023-02-02T21:53:37.896Z,88.35
2023-02-02T21:58:40.308Z,88.81
2023-02-02T22:03:46.966Z,86.14
2023-02-02T22:08:50.011Z,86.38
2023-02-02T22:13:54.282Z,86.89
2023-02-02T22:18:56.372Z,88.40
2023-02-02T22:24:00.711Z,88.39
2023-02-02T22:29:14.583Z,88.38
2023-02-02T22:34:16.946Z,87.49
2023-02-02T22:39:19.450Z,90.18
2023-02-02T22:44:21.943Z,96.83
2023-02-02T22:49:24.040Z,95.27
2023-02-02T22:54:26.376Z,97.01
2023-02-02T22:59:28.698Z,97.83
2023-02-02T23:04:31.113Z,100.00
2023-02-02T23:09:33.426Z,100.00
2023-02-02T23:14:35.780Z,100.00
2023-02-02T23:19:45.692Z,98.40
2023-02-02T23:24:50.336Z,93.50
2023-02-02T23:29:58.846Z,90.79
2023-02-02T23:35:01.356Z,93.62
2023-02-02T23:40:03.685Z,96.09
2023-02-02T23:45:06.495Z,97.06
2023-02-02T23:50:09.941Z,100.00
2023-02-02T23:55:12.493Z,100.00
